Time;durP1;ratioP1;P1;durP2;ratioP2;P2;SDS_P1;SDS_P2;PMS_P1;PMS_P2;Temp;Humidity;BMP_temperature;BMP_pressure;BME280_temperature;BME280_humidity;BME280_pressure;Samples;Min_cycle;Max_cycle;Signal;HPM_P1;HPM_P2
2021/06/06 00:01:25;;;;;;;12.55;4.30;;;;;;;17.27;53.16;99552.08;1665587;86;21059;-69
2021/06/06 00:03:57;;;;;;;11.63;4.00;;;;;;;17.26;55.73;99551.84;1666521;85;21059;-69
2021/06/06 00:06:33;;;;;;;7.67;3.80;;;;;;;17.23;56.42;99540.19;1689301;84;21168;-73
2021/06/06 00:09:00;;;;;;;7.35;4.65;;;;;;;17.17;56.64;99538.65;1702727;83;21502;-74
2021/06/06 00:11:33;;;;;;;7.40;4.67;;;;;;;17.07;57.52;99542.92;1685178;84;21032;-75
2021/06/06 00:14:02;;;;;;;8.13;4.42;;;;;;;17.00;58.02;99540.56;1685057;85;21096;-73
2021/06/06 00:16:35;;;;;;;6.75;4.42;;;;;;;16.96;58.33;99539.55;1690258;84;20946;-73
2021/06/06 00:19:01;;;;;;;7.03;3.98;;;;;;;16.95;58.50;99539.83;1647241;86;21228;-74
2021/06/06 00:21:28;;;;;;;9.83;4.72;;;;;;;16.92;58.58;99535.81;1645717;86;20931;-77
2021/06/06 00:23:56;;;;;;;8.20;4.55;;;;;;;16.87;58.74;99537.79;1662303;85;21592;-74
2021/06/06 00:26:24;;;;;;;9.40;4.80;;;;;;;16.77;59.28;99531.15;1658836;85;21064;-76
2021/06/06 00:28:50;;;;;;;8.78;4.78;;;;;;;16.69;59.67;99531.82;1663815;85;21033;-76
2021/06/06 00:31:19;;;;;;;9.08;5.40;;;;;;;16.66;60.05;99536.46;1669901;85;21160;-74
2021/06/06 00:33:49;;;;;;;8.95;4.25;;;;;;;16.67;60.23;99538.08;1702764;83;20983;-75
2021/06/06 00:36:18;;;;;;;6.70;5.22;;;;;;;16.62;60.40;99538.16;1675566;85;20964;-73
2021/06/06 00:38:46;;;;;;;6.60;4.55;;;;;;;16.56;60.62;99536.02;1675199;84;21206;-74
2021/06/06 00:41:13;;;;;;;6.50;4.28;;;;;;;16.51;60.86;99538.26;1680449;84;21079;-72
2021/06/06 00:43:39;;;;;;;13.32;4.65;;;;;;;16.47;61.04;99541.85;1668323;85;21090;-75
2021/06/06 00:46:07;;;;;;;6.62;4.35;;;;;;;16.41;61.13;99538.39;1672825;84;21560;-73
2021/06/06 00:48:34;;;;;;;6.17;4.78;;;;;;;16.41;61.33;99537.03;1699383;84;21054;-74
2021/06/06 00:51:15;;;;;;;15.20;4.05;;;;;;;16.39;61.18;99537.89;1680835;84;21017;-80
2021/06/06 00:53:52;;;;;;;7.67;4.03;;;;;;;16.39;61.09;99533.82;1647912;85;21097;-80
2021/06/06 00:56:22;;;;;;;5.53;4.15;;;;;;;16.44;60.18;99531.59;1674645;85;21305;-79
2021/06/06 00:58:50;;;;;;;8.33;4.85;;;;;;;16.50;59.18;99535.83;1667339;85;21171;-80
2021/06/06 01:01:19;;;;;;;7.47;4.37;;;;;;;16.55;59.53;99531.69;1667810;83;20968;-78
2021/06/06 01:03:49;;;;;;;7.65;4.37;;;;;;;16.60;59.22;99534.36;1704616;84;21556;-76
2021/06/06 01:06:25;;;;;;;10.65;4.87;;;;;;;16.66;59.07;99533.74;1651865;85;21114;-76
2021/06/06 01:08:53;;;;;;;9.53;5.35;;;;;;;16.67;59.52;99529.39;1636119;85;21750;-79
2021/06/06 01:11:46;;;;;;;7.90;5.03;;;;;;;16.69;58.25;99527.17;1687971;85;21567;-76
2021/06/06 01:14:20;;;;;;;4.75;4.22;;;;;;;16.71;59.08;99529.05;1700089;84;20969;-80
2021/06/06 01:17:02;;;;;;;8.20;4.42;;;;;;;16.67;59.56;99527.22;1690944;83;21044;-77
2021/06/06 01:19:40;;;;;;;8.98;4.78;;;;;;;16.59;59.98;99528.70;1685901;85;21586;-78
2021/06/06 01:22:48;;;;;;;6.40;4.40;;;;;;;16.50;60.33;99524.97;1709857;83;21143;-80
2021/06/06 01:25:26;;;;;;;9.33;4.05;;;;;;;16.47;60.84;99523.66;1691219;84;20935;-79
2021/06/06 01:28:00;;;;;;;7.42;4.25;;;;;;;16.48;60.56;99521.75;1714694;83;20989;-78
2021/06/06 01:30:31;;;;;;;8.45;4.65;;;;;;;16.50;58.77;99523.06;1664325;84;24620;-79
2021/06/06 01:33:20;;;;;;;6.40;4.75;;;;;;;16.55;59.43;99521.64;1673251;84;21529;-78
2021/06/06 01:36:04;;;;;;;10.03;4.10;;;;;;;16.56;60.02;99521.09;1676165;84;21024;-80
2021/06/06 01:38:37;;;;;;;8.80;4.20;;;;;;;16.57;59.92;99527.59;1661881;85;21546;-79
2021/06/06 01:41:12;;;;;;;9.38;4.92;;;;;;;16.54;60.59;99526.02;1652679;85;21638;-77
2021/06/06 01:43:44;;;;;;;6.17;4.60;;;;;;;16.49;61.40;99522.02;1675845;84;21050;-78
2021/06/06 01:46:20;;;;;;;8.88;6.03;;;;;;;16.42;62.36;99521.02;1706219;83;21036;-80
2021/06/06 01:48:47;;;;;;;7.97;4.95;;;;;;;16.38;62.42;99525.95;1701726;83;21264;-79
2021/06/06 01:51:22;;;;;;;6.45;4.97;;;;;;;16.40;62.42;99525.91;1666380;85;21531;-79
2021/06/06 01:53:49;;;;;;;9.85;3.62;;;;;;;16.39;63.29;99528.94;1683943;84;21025;-79
2021/06/06 01:56:22;;;;;;;4.28;3.55;;;;;;;16.21;57.54;99527.02;1714678;83;21098;-84
2021/06/06 01:58:53;;;;;;;;;;;;;;;16.19;58.07;99539.50;1707554;84;21019;-79
2021/06/06 02:01:22;;;;;;;9.88;4.00;;;;;;;16.14;57.30;99536.30;1698856;84;21022;-81
2021/06/06 02:03:52;;;;;;;4.05;3.25;;;;;;;16.12;57.59;99533.06;1648866;84;21070;-81
2021/06/06 02:06:24;;;;;;;10.90;3.62;;;;;;;16.18;57.90;99538.42;1696204;84;21055;-80
2021/06/06 02:08:54;;;;;;;7.22;2.80;;;;;;;16.21;57.97;99541.36;1700357;84;20992;-80
2021/06/06 02:11:38;;;;;;;6.85;2.77;;;;;;;16.21;58.83;99543.30;1697140;84;21015;-81
2021/06/06 02:14:11;;;;;;;4.87;3.27;;;;;;;16.23;57.77;99540.53;1696174;84;21128;-79
2021/06/06 02:16:45;;;;;;;4.47;2.30;;;;;;;16.25;57.16;99542.42;1668929;86;21079;-80
2021/06/06 02:19:14;;;;;;;4.45;2.72;;;;;;;16.21;57.70;99544.65;1693787;84;21106;-79
2021/06/06 02:21:44;;;;;;;3.35;2.20;;;;;;;16.19;58.27;99534.08;1672944;84;21527;-79
2021/06/06 02:24:13;;;;;;;3.10;2.42;;;;;;;16.20;58.48;99535.70;1668541;86;21012;-81
2021/06/06 02:26:50;;;;;;;7.50;2.90;;;;;;;16.20;58.37;99532.98;1650511;85;21277;-80
2021/06/06 02:29:43;;;;;;;4.53;3.02;;;;;;;16.20;60.07;99537.05;1664171;85;20854;-82
2021/06/06 02:32:36;;;;;;;3.62;3.17;;;;;;;16.19;61.33;99534.63;1674575;82;21060;-84
2021/06/06 02:35:30;;;;;;;8.93;4.22;;;;;;;16.14;62.82;99526.80;1673098;84;21020;-79
2021/06/06 02:38:16;;;;;;;3.65;3.10;;;;;;;16.16;65.13;99526.53;1660355;85;21513;-78
2021/06/06 02:40:54;;;;;;;3.17;2.95;;;;;;;16.20;66.07;99504.49;1667217;85;21167;-80
2021/06/06 02:43:33;;;;;;;3.75;3.42;;;;;;;16.27;64.46;99504.92;1654545;84;21006;-78
2021/06/06 02:46:02;;;;;;;16.93;7.20;;;;;;;16.34;64.82;99504.58;1667230;85;21024;-78
2021/06/06 02:48:34;;;;;;;4.58;3.33;;;;;;;16.43;65.66;99506.89;1664583;84;21055;-78
2021/06/06 02:51:07;;;;;;;4.47;2.80;;;;;;;16.52;65.19;99508.66;1621344;88;21726;-79
2021/06/06 02:53:40;;;;;;;7.67;3.12;;;;;;;16.53;65.23;99514.89;1647362;87;21536;-82
2021/06/06 02:56:14;;;;;;;5.53;4.58;;;;;;;16.45;67.00;99523.70;1664835;85;21007;-80
2021/06/06 02:58:49;;;;;;;4.72;4.08;;;;;;;16.31;68.53;99524.14;1665159;86;21517;-81
2021/06/06 03:01:32;;;;;;;4.72;3.58;;;;;;;16.23;67.90;99524.80;1636938;86;21301;-80
2021/06/06 03:04:04;;;;;;;6.03;2.80;;;;;;;16.17;67.69;99519.98;1676425;85;21075;-81
2021/06/06 03:06:37;;;;;;;5.72;4.20;;;;;;;16.23;65.90;99530.22;1706201;83;21250;-82
2021/06/06 03:09:08;;;;;;;9.33;3.67;;;;;;;16.37;67.46;99525.15;1716579;83;20983;-81
2021/06/06 03:11:36;;;;;;;5.95;4.72;;;;;;;16.25;69.55;99525.33;1692082;83;21027;-81
2021/06/06 03:14:09;;;;;;;5.10;3.15;;;;;;;16.06;69.87;99532.07;1691372;83;21019;-80
2021/06/06 03:16:41;;;;;;;3.22;2.92;;;;;;;15.94;67.32;99526.23;1626191;86;21103;-80
2021/06/06 03:19:10;;;;;;;6.58;2.35;;;;;;;15.89;66.07;99524.39;1690243;84;21602;-81
2021/06/06 03:21:39;;;;;;;5.92;3.10;;;;;;;15.87;64.66;99527.95;1680606;84;21067;-82
2021/06/06 03:24:20;;;;;;;3.22;2.95;;;;;;;15.85;63.50;99530.13;1701615;84;20971;-83
2021/06/06 03:26:50;;;;;;;4.37;3.05;;;;;;;15.88;63.63;99528.19;1702461;84;20948;-78
2021/06/06 03:29:23;;;;;;;6.33;3.33;;;;;;;15.88;63.64;99532.25;1675817;85;21066;-80
2021/06/06 03:32:00;;;;;;;4.10;3.70;;;;;;;15.88;64.13;99531.45;1666910;85;21807;-77
2021/06/06 03:34:28;;;;;;;10.45;4.58;;;;;;;15.86;64.51;99529.05;1664970;84;21083;-78
2021/06/06 03:36:56;;;;;;;7.65;3.55;;;;;;;15.85;64.01;99526.61;1672596;84;20983;-77
2021/06/06 03:39:44;;;;;;;6.65;3.85;;;;;;;15.83;63.27;99529.59;1689436;83;21046;-77
2021/06/06 03:42:13;;;;;;;6.05;3.87;;;;;;;15.83;62.77;99528.23;1705022;83;21000;-81
2021/06/06 03:44:41;;;;;;;5.05;3.12;;;;;;;15.84;62.68;99529.86;1671218;84;21096;-80
2021/06/06 03:47:08;;;;;;;4.65;3.80;;;;;;;15.86;62.49;99529.59;1645533;85;21047;-80
2021/06/06 03:49:34;;;;;;;7.08;4.12;;;;;;;15.89;63.80;99530.35;1704389;84;21054;-81
2021/06/06 03:52:05;;;;;;;4.78;3.95;;;;;;;15.90;65.83;99532.79;1714517;83;21610;-80
2021/06/06 03:54:32;;;;;;;8.35;4.95;;;;;;;15.87;68.19;99527.14;1700659;84;21106;-80
2021/06/06 03:57:02;;;;;;;6.28;3.90;;;;;;;15.84;69.13;99533.12;1676792;85;21046;-80
2021/06/06 03:59:29;;;;;;;5.22;3.47;;;;;;;15.81;68.85;99535.87;1664285;85;21587;-81
2021/06/06 04:01:57;;;;;;;6.67;4.50;;;;;;;15.80;69.03;99533.44;1687126;83;21516;-82
2021/06/06 04:04:25;;;;;;;7.47;5.05;;;;;;;15.81;69.93;99533.16;1690134;83;21053;-81
2021/06/06 04:06:53;;;;;;;7.45;4.22;;;;;;;15.82;69.58;99523.94;1686580;85;21121;-80
2021/06/06 04:09:20;;;;;;;4.10;3.70;;;;;;;15.88;69.66;99530.09;1695084;83;21939;-79
2021/06/06 04:11:47;;;;;;;7.55;3.87;;;;;;;15.95;69.93;99531.38;1719116;83;21564;-78
2021/06/06 04:14:15;;;;;;;25.97;20.95;;;;;;;16.03;70.43;99532.62;1663349;85;21017;-81
2021/06/06 04:16:44;;;;;;;11.48;6.90;;;;;;;16.10;70.85;99531.75;1665449;85;21556;-79
2021/06/06 04:19:11;;;;;;;5.90;5.30;;;;;;;16.17;71.75;99530.83;1657082;86;21069;-80
2021/06/06 04:21:38;;;;;;;14.65;5.65;;;;;;;16.21;72.33;99532.44;1657891;85;21058;-80
2021/06/06 04:24:05;;;;;;;7.53;4.80;;;;;;;16.27;72.64;99530.70;1673261;84;20991;-82
2021/06/06 04:26:33;;;;;;;9.63;4.78;;;;;;;16.40;72.66;99532.70;1660093;85;21024;-80
2021/06/06 04:29:01;;;;;;;12.35;4.72;;;;;;;16.56;73.11;99540.09;1657440;86;21051;-80
2021/06/06 04:31:31;;;;;;;9.10;4.40;;;;;;;16.65;72.88;99541.63;1657586;86;21028;-81
2021/06/06 04:34:01;;;;;;;5.35;3.30;;;;;;;16.75;72.65;99542.84;1662299;85;21825;-81
2021/06/06 04:36:28;;;;;;;7.25;4.80;;;;;;;16.79;72.61;99536.53;1703594;83;21004;-84
2021/06/06 04:38:55;;;;;;;4.70;3.33;;;;;;;16.79;72.83;99540.60;1694750;83;20972;-84
2021/06/06 04:41:25;;;;;;;9.85;3.25;;;;;;;16.79;71.16;99537.08;1714221;83;21045;-81
2021/06/06 04:43:52;;;;;;;4.95;2.67;;;;;;;16.82;68.54;99538.67;1677632;84;21036;-84
2021/06/06 04:46:19;;;;;;;3.83;3.12;;;;;;;16.84;66.98;99533.73;1687036;83;21445;-82
2021/06/06 04:48:46;;;;;;;6.67;3.58;;;;;;;16.88;65.97;99538.84;1669370;84;21015;-81
2021/06/06 04:51:19;;;;;;;7.03;4.25;;;;;;;16.94;66.72;99543.64;1743827;82;20945;-81
2021/06/06 04:53:48;;;;;;;5.30;3.27;;;;;;;16.95;67.62;99543.91;1700039;83;21089;-81
2021/06/06 04:56:18;;;;;;;7.87;3.08;;;;;;;16.96;66.47;99542.27;1723894;81;21056;-80
2021/06/06 04:58:46;;;;;;;6.03;2.80;;;;;;;16.99;65.12;99541.66;1723418;82;21410;-79
2021/06/06 05:01:14;;;;;;;9.83;5.15;;;;;;;17.06;64.34;99541.30;1722737;82;21098;-80
2021/06/06 05:03:43;;;;;;;4.90;3.42;;;;;;;17.17;66.98;99536.52;1697316;83;20904;-82
2021/06/06 05:06:11;;;;;;;12.55;2.90;;;;;;;17.24;67.83;99542.36;1714329;83;21553;-82
2021/06/06 05:08:38;;;;;;;7.80;2.42;;;;;;;17.25;65.49;99542.63;1713419;83;21528;-84
2021/06/06 05:11:06;;;;;;;6.35;4.22;;;;;;;17.29;63.81;99546.35;1684193;84;21084;-81
2021/06/06 05:13:36;;;;;;;3.33;2.22;;;;;;;17.33;64.73;99541.38;1681460;84;21103;-82
2021/06/06 05:16:05;;;;;;;4.08;2.05;;;;;;;17.32;61.07;99537.05;1659392;86;20921;-85
2021/06/06 05:18:34;;;;;;;6.97;3.75;;;;;;;17.34;61.18;99535.39;1669290;85;21012;-83
2021/06/06 05:21:05;;;;;;;10.03;4.10;;;;;;;17.37;62.42;99543.75;1669404;85;20992;-84
2021/06/06 05:23:34;;;;;;;12.40;6.08;;;;;;;17.40;62.72;99542.37;1644141;86;21562;-85
2021/06/06 05:26:02;;;;;;;6.10;5.25;;;;;;;17.37;63.31;99538.32;1665820;85;21540;-86
2021/06/06 05:28:31;;;;;;;17.60;6.12;;;;;;;17.37;62.53;99543.75;1664805;84;20979;-84
2021/06/06 05:30:58;;;;;;;8.38;4.65;;;;;;;17.40;62.69;99547.80;1679234;84;21004;-84
2021/06/06 05:33:25;;;;;;;7.10;4.62;;;;;;;17.44;63.21;99535.22;1651439;84;20996;-86
2021/06/06 05:35:52;;;;;;;6.67;5.20;;;;;;;17.48;63.86;99534.88;1687081;85;21096;-86
2021/06/06 05:38:19;;;;;;;10.68;4.78;;;;;;;17.54;64.22;99542.39;1687148;85;20922;-86
2021/06/06 05:40:47;;;;;;;4.42;3.45;;;;;;;17.58;64.47;99542.86;1658043;85;21096;-85
2021/06/06 05:43:17;;;;;;;5.97;3.15;;;;;;;17.61;64.47;99539.55;1677485;83;21108;-85
2021/06/06 05:45:43;;;;;;;2.52;2.33;;;;;;;17.64;64.95;99542.25;1715845;83;21056;-84
2021/06/06 05:48:10;;;;;;;3.62;3.17;;;;;;;17.64;64.75;99543.61;1705599;83;21062;-86
2021/06/06 05:50:40;;;;;;;3.98;3.25;;;;;;;17.62;64.92;99537.65;1691389;83;21083;-86
2021/06/06 05:53:21;;;;;;;7.70;3.80;;;;;;;17.63;64.34;99540.62;1691997;83;21001;-84
2021/06/06 05:55:48;;;;;;;7.22;3.35;;;;;;;17.65;64.85;99541.15;1697816;84;20992;-84
2021/06/06 05:58:17;;;;;;;5.30;3.20;;;;;;;17.67;65.19;99543.00;1660293;85;21022;-86
2021/06/06 06:00:45;;;;;;;5.85;2.47;;;;;;;17.67;65.97;99537.01;1680890;84;21539;-81
2021/06/06 06:03:13;;;;;;;6.60;3.47;;;;;;;17.66;66.23;99533.22;1676552;84;21522;-86
2021/06/06 06:05:40;;;;;;;6.15;2.98;;;;;;;17.55;66.90;99542.66;1699217;84;21066;-83
2021/06/06 06:08:26;;;;;;;5.55;3.47;;;;;;;17.42;67.52;99542.31;1674358;84;21043;-80
2021/06/06 06:10:55;;;;;;;3.85;2.58;;;;;;;17.38;68.38;99548.64;1681489;84;20969;-83
2021/06/06 06:13:26;;;;;;;11.45;2.72;;;;;;;17.32;68.72;99545.20;1651873;86;21035;-83
2021/06/06 06:15:54;;;;;;;5.15;2.72;;;;;;;17.26;69.65;99539.61;1665874;86;20995;-82
2021/06/06 06:18:23;;;;;;;3.33;2.80;;;;;;;17.21;71.05;99553.84;1698899;83;20933;-81
2021/06/06 06:20:56;;;;;;;7.65;3.27;;;;;;;17.12;69.77;99544.75;1681941;84;21020;-87
2021/06/06 06:23:24;;;;;;;7.50;3.50;;;;;;;17.11;70.29;99551.28;1678869;84;21070;-83
2021/06/06 06:25:51;;;;;;;8.78;2.83;;;;;;;17.02;70.72;99547.62;1689264;85;21528;-86
2021/06/06 06:28:17;;;;;;;5.30;3.40;;;;;;;16.98;71.12;99546.83;1671084;84;21051;-83
2021/06/06 06:30:49;;;;;;;3.77;3.35;;;;;;;16.97;71.15;99544.43;1635218;84;21028;-81
2021/06/06 06:33:18;;;;;;;3.80;2.90;;;;;;;16.91;72.23;99551.84;1692238;84;20952;-81
2021/06/06 06:35:45;;;;;;;4.17;2.75;;;;;;;16.87;72.52;99541.31;1724594;82;21047;-82
2021/06/06 06:38:13;;;;;;;5.15;2.55;;;;;;;16.83;72.64;99543.02;1724486;82;21297;-84
2021/06/06 06:40:42;;;;;;;3.77;2.98;;;;;;;16.81;73.73;99547.92;1714699;83;21027;-81
2021/06/06 06:43:10;;;;;;;7.85;2.83;;;;;;;16.77;74.53;99554.23;1725913;82;20948;-83
2021/06/06 06:45:40;;;;;;;4.62;2.87;;;;;;;16.67;74.50;99552.47;1700074;83;21010;-83
2021/06/06 06:48:12;;;;;;;5.55;3.00;;;;;;;16.56;75.88;99549.59;1740902;82;21052;-76
2021/06/06 06:50:40;;;;;;;4.70;2.33;;;;;;;16.47;77.13;99547.28;1721587;82;21023;-84
2021/06/06 06:53:07;;;;;;;3.52;2.33;;;;;;;16.39;78.04;99548.75;1736715;82;20944;-79
2021/06/06 06:55:36;;;;;;;4.55;2.77;;;;;;;16.37;78.07;99552.84;1739620;82;21058;-80
2021/06/06 06:58:04;;;;;;;7.78;3.95;;;;;;;16.38;78.54;99552.56;1720971;83;20979;-78
2021/06/06 07:00:37;;;;;;;5.83;3.65;;;;;;;16.38;78.75;99542.25;1727693;82;20961;-80
2021/06/06 07:03:05;;;;;;;3.80;2.90;;;;;;;16.38;79.78;99549.84;1734295;82;20969;-89
2021/06/06 07:05:35;;;;;;;8.08;3.72;;;;;;;16.39;80.99;99545.22;1724018;82;20956;-80
2021/06/06 07:08:03;;;;;;;3.77;2.50;;;;;;;16.33;81.21;99543.67;1724165;82;21080;-87
2021/06/06 07:10:34;;;;;;;3.50;2.90;;;;;;;16.25;79.49;99545.13;1744637;82;20908;-79
2021/06/06 07:13:01;;;;;;;8.10;2.55;;;;;;;16.26;79.28;99541.30;1724258;82;21013;-79
2021/06/06 07:15:30;;;;;;;6.17;4.15;;;;;;;16.28;79.23;99541.02;1743925;81;21880;-79
2021/06/06 07:17:58;;;;;;;4.40;3.95;;;;;;;16.25;78.07;99529.40;1717746;83;21008;-79
2021/06/06 07:20:30;;;;;;;5.60;2.77;;;;;;;16.25;76.45;99535.63;1692668;83;21071;-81
2021/06/06 07:22:59;;;;;;;4.23;2.50;;;;;;;16.23;75.90;99528.86;1713942;83;21494;-78
2021/06/06 07:25:25;;;;;;;5.28;2.50;;;;;;;16.22;75.35;99532.67;1693171;83;21686;-80
2021/06/06 07:27:53;;;;;;;4.55;2.35;;;;;;;16.25;75.19;99526.69;1693218;83;21537;-86
2021/06/06 07:30:27;;;;;;;4.10;2.85;;;;;;;16.31;75.21;99526.85;1693369;83;20991;-79
2021/06/06 07:32:54;;;;;;;5.70;2.80;;;;;;;16.36;76.99;99530.86;1713340;83;26457;-79
2021/06/06 07:35:24;;;;;;;3.50;2.75;;;;;;;16.38;77.49;99525.41;1714092;83;21056;-79
2021/06/06 07:37:51;;;;;;;4.33;2.40;;;;;;;16.42;77.22;99533.77;1714905;83;20964;-81
2021/06/06 07:40:19;;;;;;;2.62;2.42;;;;;;;16.43;76.36;99538.11;1717433;79;21044;-79
2021/06/06 07:42:47;;;;;;;4.03;2.80;;;;;;;16.46;76.39;99538.33;1716960;82;21143;-91
2021/06/06 07:45:15;;;;;;;2.92;2.60;;;;;;;16.48;77.28;99540.21;1719816;82;20905;-77
2021/06/06 07:47:42;;;;;;;2.37;2.15;;;;;;;16.44;75.62;99542.45;1713621;83;21501;-79
2021/06/06 07:50:19;;;;;;;3.67;2.52;;;;;;;16.46;75.22;99534.25;1693874;83;21047;-80
2021/06/06 07:52:46;;;;;;;4.20;3.37;;;;;;;16.54;75.97;99540.41;1693466;83;21069;-79
2021/06/06 07:55:15;;;;;;;6.67;3.08;;;;;;;16.62;77.32;99540.32;1689971;83;21078;-78
2021/06/06 07:57:43;;;;;;;8.00;2.80;;;;;;;16.66;77.40;99536.46;1713755;83;21524;-81
2021/06/06 08:00:19;;;;;;;3.22;2.55;;;;;;;16.68;76.37;99545.95;1720251;82;21024;-81
2021/06/06 08:02:46;;;;;;;3.35;2.67;;;;;;;16.71;75.64;99542.63;1680255;82;20909;-78
2021/06/06 08:05:16;;;;;;;6.35;4.12;;;;;;;16.75;75.54;99546.38;1728496;81;21044;-79
2021/06/06 08:07:43;;;;;;;10.68;4.92;;;;;;;16.82;76.11;99537.86;1720459;82;20996;-79
2021/06/06 08:10:12;;;;;;;4.70;3.35;;;;;;;16.87;77.24;99545.94;1725986;82;20952;-79
2021/06/06 08:12:39;;;;;;;4.17;3.27;;;;;;;16.89;76.34;99540.45;1724356;82;20905;-81
2021/06/06 08:15:08;;;;;;;7.80;3.05;;;;;;;16.94;75.96;99545.81;1743756;82;20977;-77
2021/06/06 08:17:35;;;;;;;4.40;2.70;;;;;;;16.97;75.63;99543.07;1743861;82;21814;-79
2021/06/06 08:20:13;;;;;;;7.60;3.30;;;;;;;16.97;75.51;99549.86;1746096;82;20967;-78
2021/06/06 08:22:42;;;;;;;9.58;3.05;;;;;;;16.97;75.85;99546.59;1751159;81;20975;-78
2021/06/06 08:25:11;;;;;;;4.42;2.77;;;;;;;16.98;75.36;99550.09;1729556;82;21015;-79
2021/06/06 08:27:42;;;;;;;4.22;2.90;;;;;;;17.00;74.08;99547.36;1726004;82;20979;-82
2021/06/06 08:30:18;;;;;;;9.23;3.77;;;;;;;17.03;74.14;99548.66;1733611;81;21190;-84
2021/06/06 08:32:49;;;;;;;4.12;3.20;;;;;;;17.03;74.52;99548.66;1748454;81;21011;-81
2021/06/06 08:35:17;;;;;;;18.23;6.03;;;;;;;17.03;74.94;99552.73;1729589;82;21045;-82
2021/06/06 08:37:45;;;;;;;12.47;6.85;;;;;;;17.03;75.71;99555.45;1725636;82;20996;-82
2021/06/06 08:40:16;;;;;;;7.55;4.72;;;;;;;17.06;76.78;99551.36;1750499;82;21044;-84
2021/06/06 08:42:44;;;;;;;9.33;5.50;;;;;;;17.06;77.07;99553.52;1749302;81;21302;-83
2021/06/06 08:45:38;;;;;;;7.12;4.50;;;;;;;17.06;77.31;99554.08;1714270;81;21539;-79
2021/06/06 08:48:08;;;;;;;8.73;5.22;;;;;;;17.03;77.95;99551.37;1724612;83;21060;-82
2021/06/06 08:50:39;;;;;;;8.03;4.45;;;;;;;17.03;78.24;99547.30;1712445;83;21516;-81
2021/06/06 08:53:29;;;;;;;16.15;8.98;;;;;;;17.03;78.42;99556.00;1723020;82;20964;-85
2021/06/06 08:56:22;;;;;;;13.78;7.17;;;;;;;17.04;78.50;99548.11;1702030;81;21120;-85
2021/06/06 08:59:04;;;;;;;21.60;10.93;;;;;;;17.11;78.60;99548.56;1720826;83;21532;-87
2021/06/06 09:01:46;;;;;;;19.12;10.85;;;;;;;17.19;79.09;99547.33;1703389;83;21028;-81
2021/06/06 09:04:24;;;;;;;19.50;9.20;;;;;;;17.26;79.26;99550.48;1721947;83;21013;-84
2021/06/06 09:06:59;;;;;;;15.32;7.67;;;;;;;17.32;79.76;99553.91;1732060;82;20985;-84
2021/06/06 09:09:31;;;;;;;28.77;13.55;;;;;;;17.39;79.92;99553.80;1713192;83;20948;-82
2021/06/06 09:12:07;;;;;;;10.78;8.30;;;;;;;17.43;80.90;99549.92;1698835;83;21003;-79
2021/06/06 09:14:34;;;;;;;15.28;7.92;;;;;;;17.47;79.47;99548.77;1749891;81;21058;-80
2021/06/06 09:17:08;;;;;;;8.50;6.08;;;;;;;17.41;78.56;99546.67;1751128;82;21023;-79
2021/06/06 09:19:45;;;;;;;20.23;15.25;;;;;;;17.43;77.35;99545.84;1750743;81;21525;-81
2021/06/06 09:22:16;;;;;;;15.55;9.50;;;;;;;17.43;77.22;99544.48;1746355;81;21027;-82
2021/06/06 09:24:48;;;;;;;11.12;6.33;;;;;;;17.43;77.32;99538.49;1701205;83;21030;-81
2021/06/06 09:27:26;;;;;;;7.03;4.83;;;;;;;17.47;76.98;99537.34;1721127;82;21044;-85
2021/06/06 09:30:04;;;;;;;6.37;4.40;;;;;;;17.50;77.13;99531.87;1739797;82;20906;-82
2021/06/06 09:32:32;;;;;;;10.48;4.90;;;;;;;17.56;76.58;99527.38;1721222;83;21548;-81
2021/06/06 09:35:20;;;;;;;6.08;4.95;;;;;;;17.61;75.97;99529.23;1724624;82;21509;-82
2021/06/06 09:37:52;;;;;;;7.28;6.33;;;;;;;17.65;76.56;99527.55;1712893;83;20984;-80
2021/06/06 09:40:35;;;;;;;7.03;4.87;;;;;;;17.74;76.41;99528.47;1702864;83;21229;-80
2021/06/06 09:43:02;;;;;;;10.50;5.20;;;;;;;17.86;75.45;99523.32;1720862;83;21010;-81
2021/06/06 09:45:36;;;;;;;8.25;7.42;;;;;;;17.97;74.09;99517.94;1720755;83;21043;-81
2021/06/06 09:48:16;;;;;;;9.93;4.95;;;;;;;18.09;74.95;99516.86;1725238;82;21035;-82
2021/06/06 09:50:43;;;;;;;11.57;7.83;;;;;;;18.21;74.67;99514.45;1738683;81;20926;-79
2021/06/06 09:53:19;;;;;;;10.30;6.65;;;;;;;18.29;72.65;99512.92;1725945;82;21007;-81
2021/06/06 09:55:46;;;;;;;4.78;4.22;;;;;;;18.37;70.43;99510.05;1711429;83;20981;-80
2021/06/06 09:58:33;;;;;;;7.28;5.30;;;;;;;18.45;69.11;99516.93;1728537;82;21549;-81
2021/06/06 10:01:23;;;;;;;6.28;4.15;;;;;;;18.52;69.54;99517.86;1726126;82;21116;-83
2021/06/06 10:04:01;;;;;;;13.00;5.90;;;;;;;18.64;69.55;99514.09;1723201;81;20949;-81
2021/06/06 10:06:38;;;;;;;6.97;3.72;;;;;;;18.77;69.58;99509.70;1723076;81;20963;-82
2021/06/06 10:09:19;;;;;;;6.70;3.10;;;;;;;18.86;67.69;99513.30;1748992;81;21039;-80
2021/06/06 10:11:58;;;;;;;7.90;4.28;;;;;;;18.92;65.42;99511.52;1678274;84;21140;-79
2021/06/06 10:14:35;;;;;;;3.08;2.77;;;;;;;19.07;64.67;99508.43;1667717;84;21096;-81
2021/06/06 10:17:06;;;;;;;6.85;2.65;;;;;;;19.22;63.08;99508.61;1688116;85;21692;-84
2021/06/06 10:19:50;;;;;;;3.02;2.25;;;;;;;19.38;62.52;99502.19;1660568;86;20961;-84
2021/06/06 10:22:24;;;;;;;6.33;3.20;;;;;;;19.48;61.16;99506.05;1673942;84;21576;-74
2021/06/06 10:25:07;;;;;;;5.25;3.00;;;;;;;19.59;60.56;99497.84;1694279;84;20944;-75
2021/06/06 10:27:40;;;;;;;13.78;4.25;;;;;;;19.60;61.13;99494.01;1693287;83;21142;-76
2021/06/06 10:30:14;;;;;;;2.77;2.55;;;;;;;19.60;61.49;99496.73;1693154;83;20932;-77
2021/06/06 10:32:44;;;;;;;11.70;4.12;;;;;;;19.72;61.59;99486.02;1716401;83;21063;-77
2021/06/06 10:35:21;;;;;;;6.70;2.98;;;;;;;19.84;61.90;99484.88;1653131;85;21018;-73
2021/06/06 10:37:53;;;;;;;5.92;3.42;;;;;;;20.01;61.46;99479.46;1702807;83;21074;-74
2021/06/06 10:40:44;;;;;;;3.90;3.08;;;;;;;20.15;60.78;99477.16;1678335;84;21228;-74
2021/06/06 10:43:25;;;;;;;5.35;2.85;;;;;;;20.27;60.72;99480.89;1674246;85;20987;-74
2021/06/06 10:46:14;;;;;;;8.75;3.25;;;;;;;20.48;59.47;99474.85;1669794;84;21606;-70
2021/06/06 10:49:03;;;;;;;9.08;2.45;;;;;;;20.67;58.04;99478.08;1702727;83;21024;-76
2021/06/06 10:52:08;;;;;;;6.70;2.62;;;;;;;20.84;58.01;99467.93;1661966;85;21048;-78
2021/06/06 10:54:48;;;;;;;10.40;3.27;;;;;;;21.00;57.08;99474.27;1684312;84;21024;-73
2021/06/06 10:57:30;;;;;;;5.35;2.80;;;;;;;21.09;56.46;99459.45;1636253;86;21031;-77
2021/06/06 11:00:24;;;;;;;4.62;3.15;;;;;;;21.26;56.21;99463.54;1672052;84;21020;-73
2021/06/06 11:03:01;;;;;;;9.83;3.75;;;;;;;21.32;56.07;99460.06;1710602;83;21052;-74
2021/06/06 11:05:50;;;;;;;5.37;4.60;;;;;;;21.34;55.81;99467.96;1662292;85;21031;-73
2021/06/06 11:08:34;;;;;;;4.50;3.27;;;;;;;21.41;55.50;99448.53;1657127;85;21531;-73
2021/06/06 11:11:27;;;;;;;6.75;3.90;;;;;;;21.50;55.46;99446.56;1683069;84;21031;-74
2021/06/06 11:14:16;;;;;;;7.42;3.90;;;;;;;21.61;55.31;99439.61;1666546;85;21569;-73
2021/06/06 11:16:50;;;;;;;7.50;3.35;;;;;;;21.68;54.47;99443.98;1676525;84;20996;-73
2021/06/06 11:19:30;;;;;;;13.50;7.25;;;;;;;21.75;54.37;99433.89;1705297;83;21063;-77
2021/06/06 11:22:18;;;;;;;13.88;4.85;;;;;;;21.81;54.43;99423.00;1685221;84;20912;-73
2021/06/06 11:24:49;;;;;;;3.90;3.47;;;;;;;21.88;54.47;99425.20;1702903;84;21480;-73
2021/06/06 11:27:23;;;;;;;6.35;3.72;;;;;;;21.99;52.62;99416.31;1687037;83;21719;-76
2021/06/06 11:29:55;;;;;;;4.37;3.30;;;;;;;22.04;51.20;99414.75;1678401;84;21016;-73
2021/06/06 11:32:59;;;;;;;3.35;2.80;;;;;;;22.10;51.44;99420.84;1688649;84;21003;-73
2021/06/06 11:35:39;;;;;;;6.17;2.60;;;;;;;22.22;50.67;99428.32;1659992;85;21135;-74
2021/06/06 11:38:42;;;;;;;15.70;3.75;;;;;;;22.39;50.00;99414.51;1650364;84;21539;-77
2021/06/06 11:41:25;;;;;;;10.48;3.75;;;;;;;22.45;49.97;99413.95;1686654;84;21066;-76
2021/06/06 11:44:14;;;;;;;5.60;3.22;;;;;;;22.56;49.66;99409.67;1691079;84;21071;-77
2021/06/06 11:47:01;;;;;;;7.22;3.33;;;;;;;22.58;49.92;99407.98;1692278;84;21634;-74
2021/06/06 11:49:51;;;;;;;9.18;4.70;;;;;;;22.59;50.42;99398.59;1675740;84;21060;-77
2021/06/06 11:52:46;;;;;;;9.55;4.00;;;;;;;22.66;50.26;99412.58;1687922;84;21595;-76
2021/06/06 11:55:29;;;;;;;5.08;3.02;;;;;;;22.77;49.79;99411.06;1675657;85;21066;-73
2021/06/06 11:58:15;;;;;;;3.60;2.92;;;;;;;22.82;49.09;99401.25;1700605;84;21028;-75
2021/06/06 12:01:09;;;;;;;2.95;2.62;;;;;;;22.86;47.27;99393.14;1667200;84;21671;-75